Impacts TAF Board INFO
FOR SITUATIONAL AWARENESS. NOT TO BE USED FOR FLIGHT PLANNING PURPOSES.
IDs:

KPHX - Phoenix/Sky Harbor, AZ, US

Issued at 1120 UTC 24 Feb 2018
Updated at 1409 UTC 24 Feb 2018
Potential Impact None Slight Moderate High
Time1351Z 24/15Z 24/16Z 24/17Z 24/18Z 24/19Z 24/20Z 24/21Z 24/22Z 24/23Z 25/00Z 25/01Z 25/02Z 25/03Z>>
Type OBS PRVL PRVL PRVL PRVL PRVL PRVL PRVL PRVL PRVL PRVL PRVL PRVL PRVL
VIS 10 >6 >6 >6 >6 >6 >6 >6 >6 >6 >6 >6 >6 >6
CIG -- -- -- -- -- -- -- -- -- -- -- -- -- --
Cover CLR SKC SKC SKC SKC SKC SKC SKC SKC SKC SKC SKC SKC SKC
FltCat VFR VFR VFR VFR VFR VFR VFR VFR VFR VFR VFR VFR VFR VFR
WX -- -- -- -- -- -- -- -- -- -- -- -- -- --
WDir 240 260 260 260 260 260 260 260 260 260 260 260 260 260
WSpd 5 4 4 4 4 4 4 4 4 4 4 4 4 4
WGst -- -- -- -- -- -- -- -- -- -- -- -- -- --

Raw TAF
KPHX 241120Z 2412/2518 26004KT P6SM SKC
  FM250600 11005KT P6SM SKC


Raw METAR
KPHX 241351Z 24005KT 10SM CLR 04/M03 A3022 RMK AO2 SLP230 T00391033 $
KPHX 241251Z 24005KT 10SM CLR 04/M03 A3020 RMK AO2 SLP224 T00441033
KPHX 241151Z 00000KT 10SM CLR 05/M03 A3018 RMK AO2 SLP217 T00501028 10100 20050 53006

METAR Board
Radar Display
Forecast Discussion

FOR SITUATIONAL AWARENESS. NOT TO BE USED FOR FLIGHT PLANNING PURPOSES.